Time;durP1;ratioP1;P1;durP2;ratioP2;P2;SDS_P1;SDS_P2;PMS_P1;PMS_P2;Temp;Humidity;BMP_temperature;BMP_pressure;BME280_temperature;BME280_humidity;BME280_pressure;Samples;Min_cycle;Max_cycle;Signal;HPM_P1;HPM_P2
2022/06/26 00:00:54;;;;;;;6.47;3.00;;;;;;;;;;5068132;28;20382;-68
2022/06/26 00:03:19;;;;;;;13.25;3.15;;;;;;;;;;5067292;28;20490;-68
2022/06/26 00:05:44;;;;;;;6.25;2.92;;;;;;;;;;5066662;28;20044;-68
2022/06/26 00:08:10;;;;;;;14.52;5.22;;;;;;;;;;5067615;28;20036;-68
2022/06/26 00:10:35;;;;;;;5.28;2.80;;;;;;;;;;5061961;28;20497;-68
2022/06/26 00:13:00;;;;;;;6.13;2.67;;;;;;;;;;5049609;28;20517;-68
2022/06/26 00:15:26;;;;;;;6.57;3.00;;;;;;;;;;5061973;28;20028;-68
2022/06/26 00:17:51;;;;;;;9.00;3.03;;;;;;;;;;5066267;28;20044;-68
2022/06/26 00:20:16;;;;;;;7.25;3.05;;;;;;;;;;5068430;28;20036;-66
2022/06/26 00:22:42;;;;;;;3.53;2.45;;;;;;;;;;5060705;28;20103;-67
2022/06/26 00:25:08;;;;;;;9.27;3.10;;;;;;;;;;5067253;28;20023;-68
2022/06/26 00:27:34;;;;;;;7.15;3.25;;;;;;;;;;5064136;28;20094;-67
2022/06/26 00:30:00;;;;;;;4.25;2.83;;;;;;;;;;5074667;28;20040;-68
2022/06/26 00:32:25;;;;;;;6.75;2.80;;;;;;;;;;5084254;28;20035;-68
2022/06/26 00:34:50;;;;;;;6.47;2.95;;;;;;;;;;5065395;28;20563;-68
2022/06/26 00:37:16;;;;;;;8.43;3.03;;;;;;;;;;5058339;28;20052;-68
2022/06/26 00:39:41;;;;;;;8.10;3.25;;;;;;;;;;5063570;28;20164;-67
2022/06/26 00:42:06;;;;;;;7.32;3.63;;;;;;;;;;5065945;28;20047;-66
2022/06/26 00:44:32;;;;;;;7.47;3.60;;;;;;;;;;5067488;28;20055;-68
2022/06/26 00:46:57;;;;;;;5.10;3.20;;;;;;;;;;5067721;28;20444;-67
2022/06/26 00:49:23;;;;;;;8.50;3.72;;;;;;;;;;5078652;28;20052;-68
2022/06/26 00:51:52;;;;;;;8.65;3.67;;;;;;;;;;5061315;28;20151;-68
2022/06/26 00:54:18;;;;;;;4.45;3.65;;;;;;;;;;5060090;28;20119;-68
2022/06/26 00:56:44;;;;;;;6.55;3.47;;;;;;;;;;5064665;28;20409;-68
2022/06/26 00:59:10;;;;;;;6.30;3.88;;;;;;;;;;5055380;28;20028;-68
2022/06/26 01:01:35;;;;;;;10.10;4.53;;;;;;;;;;5053676;28;20052;-68
2022/06/26 01:04:04;;;;;;;5.35;3.50;;;;;;;;;;5065565;28;20020;-68
2022/06/26 01:06:30;;;;;;;7.95;3.88;;;;;;;;;;5066854;28;20028;-68
2022/06/26 01:08:59;;;;;;;5.68;3.35;;;;;;;;;;5064533;28;20060;-67
2022/06/26 01:11:25;;;;;;;4.72;3.55;;;;;;;;;;5066241;28;20043;-67
2022/06/26 01:13:53;;;;;;;6.00;3.42;;;;;;;;;;5065148;28;20112;-67
2022/06/26 01:16:20;;;;;;;5.75;3.70;;;;;;;;;;5065774;28;20024;-68
2022/06/26 01:18:48;;;;;;;9.18;3.33;;;;;;;;;;5064191;28;20028;-68
2022/06/26 01:21:15;;;;;;;7.97;3.47;;;;;;;;;;5064206;28;20090;-68
2022/06/26 01:23:40;;;;;;;8.93;3.70;;;;;;;;;;5061791;28;20409;-68
2022/06/26 01:26:06;;;;;;;9.32;4.15;;;;;;;;;;5063990;28;20041;-68
2022/06/26 01:28:32;;;;;;;6.93;3.60;;;;;;;;;;5066169;28;20020;-66
2022/06/26 01:30:57;;;;;;;6.70;4.13;;;;;;;;;;5063215;28;20040;-68
2022/06/26 01:33:22;;;;;;;7.88;4.35;;;;;;;;;;5062413;28;20175;-68
2022/06/26 01:35:48;;;;;;;5.32;3.75;;;;;;;;;;5063561;28;20044;-68
2022/06/26 01:38:22;;;;;;;8.23;3.95;;;;;;;;;;5063269;28;20032;-68
2022/06/26 01:40:49;;;;;;;5.93;3.47;;;;;;;;;;5066509;28;20028;-68
2022/06/26 01:43:17;;;;;;;9.05;3.88;;;;;;;;;;5067991;28;20040;-68
2022/06/26 01:45:47;;;;;;;7.95;3.65;;;;;;;;;;5066812;28;20513;-68
2022/06/26 01:48:13;;;;;;;9.38;4.18;;;;;;;;;;5056877;28;20033;-68
2022/06/26 01:50:38;;;;;;;6.55;3.53;;;;;;;;;;5049130;28;20052;-67
2022/06/26 01:53:04;;;;;;;8.88;3.90;;;;;;;;;;5051301;28;20068;-68
2022/06/26 01:55:30;;;;;;;6.05;4.07;;;;;;;;;;5076764;28;20674;-67
2022/06/26 01:57:56;;;;;;;6.53;3.75;;;;;;;;;;5056304;28;20040;-68
2022/06/26 02:00:21;;;;;;;7.72;4.10;;;;;;;;;;5065744;28;20033;-68
2022/06/26 02:02:46;;;;;;;7.95;4.13;;;;;;;;;;5064304;28;20036;-68
2022/06/26 02:05:12;;;;;;;5.72;3.72;;;;;;;;;;5054565;28;20033;-68
2022/06/26 02:07:38;;;;;;;8.57;4.15;;;;;;;;;;5061594;28;20031;-68
2022/06/26 02:15:33;;;;;;;9.80;3.95;;;;;;;;;;5065300;28;20110;-68
2022/06/26 02:17:58;;;;;;;7.93;3.78;;;;;;;;;;5064481;28;20077;-67
2022/06/26 02:20:24;;;;;;;8.23;3.90;;;;;;;;;;5066664;28;20780;-68
2022/06/26 02:22:49;;;;;;;8.55;3.58;;;;;;;;;;5051599;28;20095;-67
2022/06/26 02:25:14;;;;;;;7.85;3.97;;;;;;;;;;5064773;28;20115;-68
2022/06/26 02:27:40;;;;;;;6.38;4.07;;;;;;;;;;5059052;28;20571;-67
2022/06/26 02:30:06;;;;;;;10.30;4.15;;;;;;;;;;5063053;28;20041;-68
2022/06/26 02:32:31;;;;;;;6.18;3.70;;;;;;;;;;5066888;28;20509;-68
2022/06/26 02:34:57;;;;;;;8.25;3.90;;;;;;;;;;5069133;28;20081;-67
2022/06/26 02:37:22;;;;;;;9.38;3.97;;;;;;;;;;5065427;28;20017;-68
2022/06/26 02:39:47;;;;;;;7.40;3.38;;;;;;;;;;5055477;28;20518;-67
2022/06/26 02:42:13;;;;;;;8.90;4.05;;;;;;;;;;5061091;28;20540;-68
2022/06/26 02:44:38;;;;;;;8.32;3.95;;;;;;;;;;5067258;28;20165;-68
2022/06/26 02:47:04;;;;;;;9.38;3.70;;;;;;;;;;5067272;28;20040;-68
2022/06/26 02:49:29;;;;;;;9.85;3.92;;;;;;;;;;5067864;28;20515;-68
2022/06/26 02:51:55;;;;;;;5.57;3.38;;;;;;;;;;5065826;28;20490;-68
2022/06/26 02:54:20;;;;;;;6.35;3.53;;;;;;;;;;5073477;28;20074;-68
2022/06/26 02:56:45;;;;;;;10.10;4.05;;;;;;;;;;5064390;28;20541;-68
2022/06/26 02:59:11;;;;;;;6.05;3.72;;;;;;;;;;5053000;28;20041;-68
2022/06/26 03:01:36;;;;;;;7.00;3.58;;;;;;;;;;5050608;28;20035;-68
2022/06/26 03:04:02;;;;;;;16.40;4.38;;;;;;;;;;5055699;28;20111;-68
2022/06/26 03:06:27;;;;;;;6.80;3.80;;;;;;;;;;5066650;28;20048;-68
2022/06/26 03:08:52;;;;;;;8.32;3.90;;;;;;;;;;5069769;28;20417;-68
2022/06/26 03:11:18;;;;;;;8.68;3.60;;;;;;;;;;5068526;28;20040;-68
2022/06/26 03:13:43;;;;;;;10.65;3.75;;;;;;;;;;5069733;28;20020;-68
2022/06/26 03:16:08;;;;;;;12.27;3.75;;;;;;;;;;5068740;28;20094;-68
2022/06/26 03:18:34;;;;;;;9.65;3.63;;;;;;;;;;5068625;28;20038;-68
2022/06/26 03:20:59;;;;;;;10.75;4.00;;;;;;;;;;5069377;28;20081;-68
2022/06/26 03:26:09;;;;;;;8.95;3.58;;;;;;;;;;5060734;28;20121;-68
2022/06/26 03:28:34;;;;;;;7.60;4.00;;;;;;;;;;5059411;28;20103;-67
2022/06/26 03:30:59;;;;;;;8.05;3.85;;;;;;;;;;5069466;28;20029;-68
2022/06/26 03:33:25;;;;;;;6.82;3.47;;;;;;;;;;5056572;28;20037;-68
2022/06/26 03:35:50;;;;;;;10.18;3.85;;;;;;;;;;5068589;28;20037;-68
2022/06/26 03:38:15;;;;;;;5.20;3.28;;;;;;;;;;5069015;28;20758;-68
2022/06/26 03:40:41;;;;;;;9.35;3.45;;;;;;;;;;5067596;28;20020;-68
2022/06/26 03:43:10;;;;;;;6.60;3.58;;;;;;;;;;5069456;28;20048;-68
2022/06/26 03:45:36;;;;;;;6.43;3.55;;;;;;;;;;5065361;28;20026;-68
2022/06/26 03:48:02;;;;;;;5.57;3.53;;;;;;;;;;5066934;28;20047;-68
2022/06/26 03:50:27;;;;;;;9.48;3.70;;;;;;;;;;5064934;28;20033;-68
2022/06/26 03:52:52;;;;;;;8.10;3.65;;;;;;;;;;5066414;28;20044;-68
2022/06/26 03:55:17;;;;;;;6.63;3.28;;;;;;;;;;5074387;28;20025;-68
2022/06/26 03:57:43;;;;;;;8.07;3.70;;;;;;;;;;5062638;28;20025;-67
2022/06/26 04:00:09;;;;;;;5.15;3.22;;;;;;;;;;5063563;28;20029;-68
2022/06/26 04:02:34;;;;;;;6.88;3.22;;;;;;;;;;5058068;28;20039;-68
2022/06/26 04:04:59;;;;;;;6.60;3.22;;;;;;;;;;5063666;28;20521;-68
2022/06/26 04:07:25;;;;;;;8.05;3.53;;;;;;;;;;5068874;28;20406;-68
2022/06/26 04:09:50;;;;;;;7.22;3.30;;;;;;;;;;5062335;28;20529;-68
2022/06/26 04:12:15;;;;;;;9.18;3.60;;;;;;;;;;5061129;28;20060;-68
2022/06/26 04:14:41;;;;;;;9.82;3.28;;;;;;;;;;5071398;28;20028;-68
2022/06/26 04:17:07;;;;;;;5.93;3.42;;;;;;;;;;5073046;28;20047;-68
2022/06/26 04:19:32;;;;;;;6.78;3.25;;;;;;;;;;5067569;28;20028;-68
2022/06/26 04:21:57;;;;;;;6.53;3.50;;;;;;;;;;5060591;28;20177;-68
2022/06/26 04:24:23;;;;;;;7.35;3.13;;;;;;;;;;5062952;28;20036;-68
2022/06/26 04:26:48;;;;;;;6.32;3.08;;;;;;;;;;5065993;28;20120;-68
2022/06/26 04:29:14;;;;;;;6.82;3.25;;;;;;;;;;5068270;28;20033;-68
2022/06/26 04:31:39;;;;;;;7.63;3.42;;;;;;;;;;5067185;28;20481;-68
2022/06/26 04:34:04;;;;;;;6.05;3.20;;;;;;;;;;5065830;28;20421;-68
2022/06/26 04:36:30;;;;;;;5.38;2.92;;;;;;;;;;5062749;28;20413;-68
2022/06/26 04:38:55;;;;;;;5.93;3.25;;;;;;;;;;5067760;28;20553;-68
2022/06/26 04:41:34;;;;;;;9.18;3.70;;;;;;;;;;5067335;28;20101;-68
2022/06/26 04:44:05;;;;;;;9.32;3.30;;;;;;;;;;5067270;28;20085;-68
2022/06/26 04:46:31;;;;;;;4.68;2.90;;;;;;;;;;5065838;28;20746;-68
2022/06/26 04:48:57;;;;;;;7.82;3.25;;;;;;;;;;5064740;28;20124;-68
2022/06/26 04:51:22;;;;;;;8.27;3.65;;;;;;;;;;5066891;28;20036;-68
2022/06/26 04:53:48;;;;;;;7.30;3.22;;;;;;;;;;5066749;28;20402;-69
2022/06/26 04:56:13;;;;;;;10.35;5.07;;;;;;;;;;5063966;28;20036;-68
2022/06/26 04:58:39;;;;;;;10.48;4.80;;;;;;;;;;5067316;28;20066;-68
2022/06/26 05:01:04;;;;;;;4.90;3.15;;;;;;;;;;5056577;28;20094;-68
2022/06/26 05:03:30;;;;;;;7.63;2.78;;;;;;;;;;5065810;28;20031;-68
2022/06/26 05:05:56;;;;;;;5.50;2.97;;;;;;;;;;5052054;28;20109;-68
2022/06/26 05:08:21;;;;;;;6.78;3.42;;;;;;;;;;5059194;28;20040;-68
2022/06/26 05:10:46;;;;;;;4.75;2.90;;;;;;;;;;5066368;28;20013;-68
2022/06/26 05:13:12;;;;;;;7.60;3.50;;;;;;;;;;5055303;28;20284;-68
2022/06/26 05:15:38;;;;;;;6.13;3.00;;;;;;;;;;5063983;28;20024;-67
2022/06/26 05:18:03;;;;;;;7.18;3.15;;;;;;;;;;5061135;28;20029;-68
2022/06/26 05:20:29;;;;;;;6.63;3.50;;;;;;;;;;5061613;28;20040;-68
2022/06/26 05:22:54;;;;;;;4.25;2.80;;;;;;;;;;5058907;28;20116;-68
2022/06/26 05:25:20;;;;;;;6.90;3.22;;;;;;;;;;5060292;28;20021;-68
2022/06/26 05:27:45;;;;;;;7.25;3.40;;;;;;;;;;5061268;28;20029;-68
2022/06/26 05:30:11;;;;;;;10.77;2.88;;;;;;;;;;5053854;28;20032;-68
2022/06/26 05:32:36;;;;;;;10.10;3.30;;;;;;;;;;5067077;28;20067;-68
2022/06/26 05:35:02;;;;;;;7.47;3.47;;;;;;;;;;5055495;28;20077;-68
2022/06/26 05:37:28;;;;;;;8.90;3.55;;;;;;;;;;5067403;28;20024;-68
2022/06/26 05:39:53;;;;;;;7.00;3.15;;;;;;;;;;5069347;28;20105;-68
2022/06/26 05:42:18;;;;;;;6.78;3.35;;;;;;;;;;5066013;28;20047;-68
2022/06/26 05:44:44;;;;;;;8.65;3.20;;;;;;;;;;5066817;28;20032;-68
2022/06/26 05:47:09;;;;;;;6.00;3.15;;;;;;;;;;5065759;28;20548;-68
2022/06/26 05:49:34;;;;;;;7.10;3.00;;;;;;;;;;5066973;28;20021;-68
2022/06/26 05:52:00;;;;;;;8.07;3.13;;;;;;;;;;5065464;28;20028;-68
2022/06/26 05:54:26;;;;;;;7.95;3.30;;;;;;;;;;5071770;28;20024;-68
2022/06/26 05:56:51;;;;;;;4.85;3.17;;;;;;;;;;5062345;28;20192;-68
2022/06/26 05:59:17;;;;;;;10.93;3.17;;;;;;;;;;5051071;28;20040;-68
2022/06/26 06:01:43;;;;;;;7.72;3.20;;;;;;;;;;5058626;28;20395;-67
2022/06/26 06:04:08;;;;;;;14.25;3.80;;;;;;;;;;5066450;28;20027;-67
2022/06/26 06:06:34;;;;;;;7.07;3.25;;;;;;;;;;5057879;28;20472;-68
2022/06/26 06:08:59;;;;;;;9.10;3.30;;;;;;;;;;5060894;28;20510;-68
2022/06/26 06:11:25;;;;;;;5.80;3.22;;;;;;;;;;5056731;28;20032;-68
2022/06/26 06:13:51;;;;;;;8.65;3.30;;;;;;;;;;5067147;28;20027;-67
2022/06/26 06:16:17;;;;;;;5.50;3.13;;;;;;;;;;5057877;28;20086;-68
2022/06/26 06:18:42;;;;;;;6.63;3.35;;;;;;;;;;5066227;28;20063;-68
2022/06/26 06:21:08;;;;;;;8.52;3.28;;;;;;;;;;5061462;28;20062;-67
2022/06/26 06:23:33;;;;;;;7.20;3.05;;;;;;;;;;5064766;28;20033;-68
2022/06/26 06:25:59;;;;;;;9.00;3.47;;;;;;;;;;5065805;28;20033;-68
2022/06/26 06:28:24;;;;;;;7.10;3.15;;;;;;;;;;5065519;28;20056;-67
2022/06/26 06:30:49;;;;;;;5.03;3.10;;;;;;;;;;5064109;28;20033;-68
2022/06/26 06:33:15;;;;;;;6.75;3.30;;;;;;;;;;5067265;28;20154;-68
2022/06/26 06:35:40;;;;;;;6.70;3.20;;;;;;;;;;5070368;28;20496;-68
2022/06/26 06:38:06;;;;;;;4.78;3.17;;;;;;;;;;5068309;28;20090;-68
2022/06/26 06:40:32;;;;;;;5.20;3.28;;;;;;;;;;5066886;28;20027;-68
2022/06/26 06:42:57;;;;;;;7.53;3.45;;;;;;;;;;5069566;28;20041;-68
2022/06/26 06:45:22;;;;;;;5.50;3.25;;;;;;;;;;5066746;28;20999;-68
2022/06/26 06:47:48;;;;;;;5.70;3.25;;;;;;;;;;5067710;28;20037;-68
2022/06/26 06:50:13;;;;;;;6.93;3.10;;;;;;;;;;5064288;28;20035;-68
2022/06/26 06:52:38;;;;;;;5.38;3.15;;;;;;;;;;5066470;28;20489;-68
2022/06/26 06:55:05;;;;;;;6.75;3.00;;;;;;;;;;5070529;28;20021;-67
2022/06/26 06:57:30;;;;;;;4.57;3.00;;;;;;;;;;5054294;28;20135;-68
2022/06/26 06:59:56;;;;;;;5.50;3.20;;;;;;;;;;5065342;28;20111;-68
2022/06/26 07:02:21;;;;;;;6.93;3.40;;;;;;;;;;5067697;28;20525;-68
2022/06/26 07:04:47;;;;;;;7.38;3.30;;;;;;;;;;5072042;28;20074;-68
2022/06/26 07:07:12;;;;;;;8.15;3.40;;;;;;;;;;5069530;28;20494;-67
2022/06/26 07:09:37;;;;;;;7.38;3.53;;;;;;;;;;5067161;28;20037;-68
2022/06/26 07:12:03;;;;;;;6.20;3.40;;;;;;;;;;5068056;28;20028;-68
2022/06/26 07:14:29;;;;;;;6.43;3.30;;;;;;;;;;5064255;28;20059;-69
2022/06/26 07:16:54;;;;;;;7.50;3.67;;;;;;;;;;5067916;28;20060;-68
2022/06/26 07:19:20;;;;;;;5.20;3.22;;;;;;;;;;5070874;28;20025;-68
2022/06/26 07:21:45;;;;;;;5.97;2.95;;;;;;;;;;5067959;28;20075;-68
2022/06/26 07:24:12;;;;;;;4.40;3.10;;;;;;;;;;5070448;28;20028;-68
2022/06/26 07:26:37;;;;;;;5.68;3.17;;;;;;;;;;5070792;28;20032;-68
2022/06/26 07:29:03;;;;;;;5.93;3.28;;;;;;;;;;5064089;28;20024;-68
2022/06/26 07:31:28;;;;;;;4.53;3.55;;;;;;;;;;5067614;28;20024;-68
2022/06/26 07:34:12;;;;;;;9.02;3.47;;;;;;;;;;5068969;28;20044;-69
2022/06/26 07:36:38;;;;;;;;;;;;;;;;;;5066989;28;20048;-69
2022/06/26 07:39:03;;;;;;;8.13;3.05;;;;;;;;;;5065020;28;19964;-69
2022/06/26 07:41:28;;;;;;;6.22;3.42;;;;;;;;;;5067670;28;20028;-68
2022/06/26 07:43:54;;;;;;;8.30;2.95;;;;;;;;;;5063962;28;20088;-68
2022/06/26 07:46:19;;;;;;;6.00;3.10;;;;;;;;;;5067349;28;20092;-68
2022/06/26 07:48:45;;;;;;;5.78;3.22;;;;;;;;;;5067355;28;20682;-69
2022/06/26 07:51:10;;;;;;;7.75;3.55;;;;;;;;;;5060039;28;20047;-69
2022/06/26 07:53:36;;;;;;;8.52;3.20;;;;;;;;;;5058691;28;20475;-70
2022/06/26 07:56:03;;;;;;;7.85;3.53;;;;;;;;;;5062607;28;20052;-69
2022/06/26 07:58:28;;;;;;;7.45;2.65;;;;;;;;;;5047447;28;20029;-69
2022/06/26 08:00:54;;;;;;;6.10;2.80;;;;;;;;;;5061903;28;20039;-69
2022/06/26 08:03:19;;;;;;;4.95;2.90;;;;;;;;;;5051148;28;20044;-68
2022/06/26 08:05:46;;;;;;;6.25;3.25;;;;;;;;;;5065056;28;20079;-68
2022/06/26 08:08:12;;;;;;;7.80;3.00;;;;;;;;;;5052076;28;20078;-70
2022/06/26 08:10:38;;;;;;;6.22;3.08;;;;;;;;;;5059587;28;20020;-67
2022/06/26 08:13:04;;;;;;;8.75;3.28;;;;;;;;;;5065394;28;20478;-68
2022/06/26 08:15:29;;;;;;;6.20;3.00;;;;;;;;;;5063083;28;20055;-67
2022/06/26 08:17:55;;;;;;;12.10;4.07;;;;;;;;;;5064391;28;20029;-66
2022/06/26 08:20:21;;;;;;;8.35;3.30;;;;;;;;;;5064893;28;20056;-67
2022/06/26 08:22:46;;;;;;;8.10;3.00;;;;;;;;;;5064627;28;20025;-67
2022/06/26 08:25:11;;;;;;;7.93;3.22;;;;;;;;;;5064994;28;20033;-67
2022/06/26 08:27:37;;;;;;;6.28;3.25;;;;;;;;;;5066110;28;20468;-67
2022/06/26 08:30:04;;;;;;;6.75;2.88;;;;;;;;;;5063559;28;20039;-67
2022/06/26 08:32:29;;;;;;;5.57;3.00;;;;;;;;;;5055895;28;20029;-68
2022/06/26 08:34:55;;;;;;;7.53;3.45;;;;;;;;;;5062148;28;20113;-68
2022/06/26 08:37:20;;;;;;;6.55;2.70;;;;;;;;;;5063367;28;20031;-68
2022/06/26 08:39:45;;;;;;;7.00;2.97;;;;;;;;;;5065905;28;20029;-68
2022/06/26 08:42:12;;;;;;;6.65;2.78;;;;;;;;;;5069066;28;20093;-67
2022/06/26 08:44:46;;;;;;;8.57;3.15;;;;;;;;;;5064357;28;20052;-67
2022/06/26 08:47:13;;;;;;;5.80;3.05;;;;;;;;;;5069178;28;20036;-67
2022/06/26 08:49:40;;;;;;;6.05;3.22;;;;;;;;;;5066921;28;20032;-66
2022/06/26 08:52:06;;;;;;;4.65;2.65;;;;;;;;;;5065391;28;20033;-66
2022/06/26 08:54:32;;;;;;;7.78;3.00;;;;;;;;;;5056654;28;20173;-68
2022/06/26 08:56:58;;;;;;;7.97;2.85;;;;;;;;;;5066896;28;20539;-68
2022/06/26 08:59:24;;;;;;;12.43;3.80;;;;;;;;;;5070815;28;20032;-68
2022/06/26 09:01:49;;;;;;;4.63;2.88;;;;;;;;;;5060369;28;20075;-66
2022/06/26 09:04:15;;;;;;;8.32;4.03;;;;;;;;;;5068591;28;20032;-66
2022/06/26 09:06:43;;;;;;;7.05;2.90;;;;;;;;;;5047286;28;20083;-66
2022/06/26 09:09:37;;;;;;;6.03;3.10;;;;;;;;;;5060085;28;20036;-65
2022/06/26 09:12:04;;;;;;;7.85;2.95;;;;;;;;;;5064267;28;20048;-66
2022/06/26 09:14:30;;;;;;;6.97;2.70;;;;;;;;;;5064874;28;20056;-65
2022/06/26 09:16:57;;;;;;;6.32;2.70;;;;;;;;;;5067015;28;20044;-66
2022/06/26 09:19:24;;;;;;;5.97;2.78;;;;;;;;;;5062770;28;20082;-65
2022/06/26 09:21:51;;;;;;;6.25;3.10;;;;;;;;;;5063049;28;20118;-66
2022/06/26 09:24:19;;;;;;;8.82;3.25;;;;;;;;;;5061559;28;20032;-66
2022/06/26 09:26:45;;;;;;;4.80;2.70;;;;;;;;;;5052873;28;20105;-65
2022/06/26 09:29:11;;;;;;;4.53;2.60;;;;;;;;;;5061466;28;20030;-65
2022/06/26 09:31:37;;;;;;;5.43;2.80;;;;;;;;;;5065783;28;20041;-65
2022/06/26 09:34:04;;;;;;;9.55;2.70;;;;;;;;;;5066154;28;20107;-66
2022/06/26 09:36:30;;;;;;;5.72;2.33;;;;;;;;;;5066208;28;20040;-66
2022/06/26 09:38:55;;;;;;;2.88;2.35;;;;;;;;;;5060790;28;20055;-66
2022/06/26 09:41:34;;;;;;;4.47;2.47;;;;;;;;;;5061371;28;20037;-66
2022/06/26 09:43:59;;;;;;;5.53;2.22;;;;;;;;;;5063877;28;20101;-66
2022/06/26 09:46:30;;;;;;;5.60;2.13;;;;;;;;;;5057289;28;20028;-66
2022/06/26 09:48:57;;;;;;;7.50;2.65;;;;;;;;;;5066546;28;20055;-67
2022/06/26 09:51:24;;;;;;;5.30;2.53;;;;;;;;;;5067850;28;20051;-69
2022/06/26 09:53:50;;;;;;;3.95;2.40;;;;;;;;;;5070213;28;20131;-66
2022/06/26 09:56:17;;;;;;;3.13;1.90;;;;;;;;;;5060094;28;20123;-66
2022/06/26 09:58:43;;;;;;;6.00;2.10;;;;;;;;;;5062411;28;20107;-66
2022/06/26 10:06:37;;;;;;;3.00;2.05;;;;;;;;;;5063829;28;20048;-66
2022/06/26 10:09:05;;;;;;;4.78;2.67;;;;;;;;;;5063841;28;20044;-66
2022/06/26 10:11:32;;;;;;;4.55;2.50;;;;;;;;;;5047104;28;20028;-67
2022/06/26 10:14:18;;;;;;;3.55;2.10;;;;;;;;;;5058645;28;20047;-66
2022/06/26 10:16:58;;;;;;;4.10;2.10;;;;;;;;;;5064631;28;20052;-66
2022/06/26 10:20:02;;;;;;;6.65;2.00;;;;;;;;;;5060249;28;20059;-66
2022/06/26 10:22:38;;;;;;;4.68;2.05;;;;;;;;;;5038604;28;20049;-66
2022/06/26 10:25:05;;;;;;;7.00;2.10;;;;;;;;;;5086876;28;20059;-67
2022/06/26 10:27:35;;;;;;;3.22;2.30;;;;;;;;;;5066309;28;20094;-66
2022/06/26 10:30:07;;;;;;;6.22;2.08;;;;;;;;;;5065310;28;20090;-67
2022/06/26 10:32:33;;;;;;;3.63;1.88;;;;;;;;;;5066420;28;20842;-66
2022/06/26 10:34:58;;;;;;;3.00;2.00;;;;;;;;;;5067087;28;20028;-66
2022/06/26 10:37:24;;;;;;;4.20;1.95;;;;;;;;;;5067085;28;20059;-67
2022/06/26 10:39:52;;;;;;;6.05;2.22;;;;;;;;;;5066790;28;20051;-67
2022/06/26 10:45:05;;;;;;;2.97;2.00;;;;;;;;;;5066119;28;20051;-66
2022/06/26 10:47:41;;;;;;;5.15;2.38;;;;;;;;;;5065946;28;20063;-67
2022/06/26 10:50:22;;;;;;;5.70;2.20;;;;;;;;;;5066214;28;20045;-67
2022/06/26 10:52:47;;;;;;;2.92;1.95;;;;;;;;;;5063835;28;20021;-67
2022/06/26 10:55:13;;;;;;;6.88;2.35;;;;;;;;;;5067650;28;20023;-66
2022/06/26 10:57:38;;;;;;;6.10;2.58;;;;;;;;;;5064914;28;20110;-67
2022/06/26 11:00:12;;;;;;;4.03;2.20;;;;;;;;;;5066194;28;20040;-67
2022/06/26 11:02:44;;;;;;;4.72;2.00;;;;;;;;;;5064399;28;20098;-66
2022/06/26 11:05:10;;;;;;;5.28;2.25;;;;;;;;;;5065773;28;20064;-67
2022/06/26 11:07:47;;;;;;;3.75;2.13;;;;;;;;;;5062320;28;20066;-66
2022/06/26 11:10:16;;;;;;;3.92;2.00;;;;;;;;;;5055713;28;20021;-66
2022/06/26 11:12:43;;;;;;;7.68;2.20;;;;;;;;;;5045007;28;20084;-66
2022/06/26 11:15:33;;;;;;;5.25;1.90;;;;;;;;;;5046384;28;20455;-66
2022/06/26 11:18:04;;;;;;;5.72;2.10;;;;;;;;;;5052284;28;20111;-66
2022/06/26 11:20:46;;;;;;;5.75;2.00;;;;;;;;;;5061130;28;20040;-67
2022/06/26 11:23:26;;;;;;;3.47;2.03;;;;;;;;;;5056137;28;20042;-67
2022/06/26 11:26:07;;;;;;;7.03;1.95;;;;;;;;;;5058824;28;20040;-67
2022/06/26 11:28:40;;;;;;;7.47;1.92;;;;;;;;;;5065083;28;20073;-67
2022/06/26 11:31:19;;;;;;;4.05;1.65;;;;;;;;;;5057658;28;20036;-67
2022/06/26 11:33:44;;;;;;;4.05;1.80;;;;;;;;;;5067602;28;20077;-67
2022/06/26 11:36:13;;;;;;;4.40;2.10;;;;;;;;;;5061584;28;20040;-67
2022/06/26 11:38:45;;;;;;;5.18;2.40;;;;;;;;;;5066143;28;20037;-66
2022/06/26 11:41:11;;;;;;;4.30;2.10;;;;;;;;;;5054382;28;20036;-67
2022/06/26 11:43:44;;;;;;;5.30;2.22;;;;;;;;;;5059622;28;20048;-66
2022/06/26 11:46:10;;;;;;;;;;;;;;;;;;5057959;28;20017;-67
2022/06/26 11:48:35;;;;;;;2.67;2.00;;;;;;;;;;5064426;28;19942;-66
2022/06/26 11:51:00;;;;;;;3.08;1.98;;;;;;;;;;5067445;28;20278;-67
2022/06/26 11:53:31;;;;;;;2.85;2.00;;;;;;;;;;5073947;28;20040;-67
2022/06/26 11:55:58;;;;;;;3.33;1.77;;;;;;;;;;5069864;28;20037;-67
2022/06/26 11:58:27;;;;;;;2.42;1.42;;;;;;;;;;5069032;28;20032;-67
2022/06/26 12:01:12;;;;;;;3.55;1.80;;;;;;;;;;5068942;28;20119;-67
2022/06/26 12:03:47;;;;;;;4.15;1.70;;;;;;;;;;5068005;28;20040;-67
2022/06/26 12:06:31;;;;;;;5.25;1.92;;;;;;;;;;5063462;28;20052;-67
2022/06/26 12:08:58;;;;;;;3.17;1.80;;;;;;;;;;5066850;28;20034;-67
2022/06/26 12:11:24;;;;;;;7.28;2.08;;;;;;;;;;5064652;28;20037;-66
2022/06/26 12:13:50;;;;;;;4.82;1.98;;;;;;;;;;5059663;28;20029;-67
2022/06/26 12:16:15;;;;;;;5.03;1.85;;;;;;;;;;5067129;28;20020;-66
2022/06/26 12:18:41;;;;;;;4.55;1.98;;;;;;;;;;5064928;28;20579;-66
2022/06/26 12:21:14;;;;;;;4.05;1.77;;;;;;;;;;5067246;28;20036;-67
2022/06/26 12:23:44;;;;;;;3.33;1.80;;;;;;;;;;5066150;28;20025;-66
2022/06/26 12:26:11;;;;;;;2.40;1.60;;;;;;;;;;5060858;28;20045;-67
2022/06/26 12:29:00;;;;;;;3.60;1.60;;;;;;;;;;5065469;28;20102;-66
2022/06/26 12:31:26;;;;;;;4.18;1.70;;;;;;;;;;5047500;28;20494;-66
2022/06/26 12:33:51;;;;;;;3.58;1.63;;;;;;;;;;5062329;28;20150;-67
2022/06/26 12:36:17;;;;;;;4.18;1.90;;;;;;;;;;5061970;28;20525;-67
2022/06/26 12:38:44;;;;;;;5.90;1.70;;;;;;;;;;5067957;28;20044;-67
2022/06/26 12:41:16;;;;;;;4.80;1.83;;;;;;;;;;5067960;28;20082;-67
2022/06/26 12:43:50;;;;;;;2.35;1.60;;;;;;;;;;5066171;28;20079;-67
2022/06/26 12:46:16;;;;;;;4.72;2.03;;;;;;;;;;5061261;28;20087;-67
2022/06/26 12:48:42;;;;;;;4.57;2.05;;;;;;;;;;5064509;28;20402;-67
2022/06/26 12:51:08;;;;;;;2.63;1.90;;;;;;;;;;5064475;28;20036;-67
2022/06/26 12:53:33;;;;;;;3.33;2.05;;;;;;;;;;5071033;28;20080;-67
2022/06/26 12:55:59;;;;;;;4.78;1.63;;;;;;;;;;5066791;28;20110;-67
2022/06/26 12:58:25;;;;;;;4.70;1.90;;;;;;;;;;5060357;28;20025;-67
2022/06/26 13:00:51;;;;;;;4.20;1.70;;;;;;;;;;5062011;28;20441;-67
2022/06/26 13:03:16;;;;;;;3.35;1.90;;;;;;;;;;5065476;28;20563;-67
2022/06/26 13:05:41;;;;;;;4.22;1.90;;;;;;;;;;5066335;28;20036;-67
2022/06/26 13:08:07;;;;;;;5.43;1.88;;;;;;;;;;5049679;28;20478;-67
2022/06/26 13:10:32;;;;;;;5.25;1.75;;;;;;;;;;5053617;28;20099;-67
2022/06/26 13:12:58;;;;;;;4.30;1.90;;;;;;;;;;5066655;28;20067;-67
2022/06/26 13:15:23;;;;;;;3.70;1.60;;;;;;;;;;5067004;28;20086;-67
2022/06/26 13:17:49;;;;;;;7.65;2.20;;;;;;;;;;5067053;28;20068;-67
2022/06/26 13:20:14;;;;;;;6.00;2.30;;;;;;;;;;5068683;28;20028;-67
2022/06/26 13:22:39;;;;;;;3.25;2.10;;;;;;;;;;5059697;28;20027;-66
2022/06/26 13:25:05;;;;;;;4.57;1.65;;;;;;;;;;5066663;28;20033;-67
2022/06/26 13:27:31;;;;;;;2.42;1.95;;;;;;;;;;5066611;28;20036;-67
2022/06/26 13:29:56;;;;;;;3.03;2.00;;;;;;;;;;5065530;28;20540;-67
2022/06/26 13:32:24;;;;;;;5.68;1.98;;;;;;;;;;5061235;28;20033;-66
2022/06/26 13:34:49;;;;;;;4.82;2.20;;;;;;;;;;5063763;28;20036;-67
2022/06/26 13:37:17;;;;;;;4.53;2.05;;;;;;;;;;5066500;28;20029;-67
2022/06/26 13:39:42;;;;;;;3.88;1.90;;;;;;;;;;5065382;28;20041;-67
2022/06/26 13:42:08;;;;;;;4.90;1.90;;;;;;;;;;5065480;28;20040;-67
2022/06/26 13:44:33;;;;;;;5.80;3.15;;;;;;;;;;5065243;28;20041;-68
2022/06/26 13:46:58;;;;;;;4.25;2.70;;;;;;;;;;5065376;28;20039;-67
2022/06/26 13:49:24;;;;;;;8.20;2.97;;;;;;;;;;5067793;28;20029;-67
2022/06/26 13:51:49;;;;;;;5.97;2.25;;;;;;;;;;5053558;28;20045;-67
2022/06/26 13:54:14;;;;;;;9.05;2.28;;;;;;;;;;5056381;28;20030;-67
2022/06/26 13:56:40;;;;;;;4.72;1.92;;;;;;;;;;5052840;28;20052;-67
2022/06/26 13:59:05;;;;;;;4.30;2.30;;;;;;;;;;5065321;28;20105;-67
2022/06/26 14:01:30;;;;;;;5.43;2.05;;;;;;;;;;5065711;28;20035;-67
2022/06/26 14:03:56;;;;;;;5.43;2.45;;;;;;;;;;5065358;28;20166;-67
2022/06/26 14:06:21;;;;;;;6.82;2.30;;;;;;;;;;5059536;28;20040;-67
2022/06/26 14:08:47;;;;;;;7.68;2.20;;;;;;;;;;5057734;28;20024;-67
2022/06/26 14:11:12;;;;;;;7.18;2.20;;;;;;;;;;5052588;28;20047;-67
2022/06/26 14:13:37;;;;;;;3.28;2.00;;;;;;;;;;5066418;28;20028;-67
2022/06/26 14:16:03;;;;;;;5.15;2.03;;;;;;;;;;5069268;28;20021;-67
2022/06/26 14:18:29;;;;;;;2.55;1.80;;;;;;;;;;5065054;28;20047;-67
2022/06/26 14:20:54;;;;;;;3.03;1.70;;;;;;;;;;5065276;28;20040;-67
2022/06/26 14:26:04;;;;;;;2.85;2.00;;;;;;;;;;5066184;28;20715;-67
2022/06/26 14:28:32;;;;;;;2.92;1.70;;;;;;;;;;5066125;28;20036;-67
2022/06/26 14:30:58;;;;;;;3.30;1.60;;;;;;;;;;5065924;28;20059;-67
2022/06/26 14:33:25;;;;;;;3.90;2.03;;;;;;;;;;5064370;28;20037;-67
2022/06/26 14:35:50;;;;;;;3.13;1.70;;;;;;;;;;5066224;28;20079;-67
2022/06/26 14:38:17;;;;;;;3.60;1.48;;;;;;;;;;5062450;28;20478;-67
2022/06/26 14:40:43;;;;;;;6.13;1.88;;;;;;;;;;5066099;28;20059;-67
2022/06/26 14:43:09;;;;;;;4.93;1.65;;;;;;;;;;5065026;28;20049;-67
2022/06/26 14:45:34;;;;;;;4.72;1.50;;;;;;;;;;5063730;28;20029;-67
2022/06/26 14:48:00;;;;;;;5.28;1.58;;;;;;;;;;5066115;28;20120;-67
2022/06/26 14:50:25;;;;;;;3.78;1.67;;;;;;;;;;5061813;28;20067;-67
2022/06/26 14:52:53;;;;;;;3.03;1.60;;;;;;;;;;5066614;28;20469;-67
2022/06/26 14:55:19;;;;;;;4.32;1.65;;;;;;;;;;5055087;28;20077;-67
2022/06/26 14:57:45;;;;;;;2.13;1.60;;;;;;;;;;5049393;28;20807;-69
2022/06/26 15:00:11;;;;;;;3.78;1.88;;;;;;;;;;5050436;28;20036;-67